sensor_id;sensor_type;location;lat;lon;timestamp;temperature;humidity
11474;DHT22;5793;52.238;13.438;2023-09-12T00:00:26;16.20;99.90
11474;DHT22;5793;52.238;13.438;2023-09-12T00:02:56;16.20;99.90
11474;DHT22;5793;52.238;13.438;2023-09-12T00:05:24;16.20;99.90
11474;DHT22;5793;52.238;13.438;2023-09-12T00:07:52;16.10;99.90
11474;DHT22;5793;52.238;13.438;2023-09-12T00:10:20;16.00;99.90
11474;DHT22;5793;52.238;13.438;2023-09-12T00:12:48;15.80;99.90
11474;DHT22;5793;52.238;13.438;2023-09-12T00:15:16;15.60;99.90
11474;DHT22;5793;52.238;13.438;2023-09-12T00:17:46;15.50;99.90
11474;DHT22;5793;52.238;13.438;2023-09-12T00:20:16;15.60;99.90
11474;DHT22;5793;52.238;13.438;2023-09-12T00:22:45;15.60;99.90
11474;DHT22;5793;52.238;13.438;2023-09-12T00:25:13;15.70;99.90
11474;DHT22;5793;52.238;13.438;2023-09-12T00:27:41;15.70;99.90
11474;DHT22;5793;52.238;13.438;2023-09-12T00:30:09;15.70;99.90
11474;DHT22;5793;52.238;13.438;2023-09-12T00:32:37;15.70;99.90
11474;DHT22;5793;52.238;13.438;2023-09-12T00:35:06;15.60;99.90
11474;DHT22;5793;52.238;13.438;2023-09-12T00:37:35;15.70;99.90
11474;DHT22;5793;52.238;13.438;2023-09-12T00:40:04;15.70;99.90
11474;DHT22;5793;52.238;13.438;2023-09-12T00:42:32;15.70;99.90
11474;DHT22;5793;52.238;13.438;2023-09-12T00:45:00;15.80;99.90
11474;DHT22;5793;52.238;13.438;2023-09-12T00:47:28;15.80;99.90
11474;DHT22;5793;52.238;13.438;2023-09-12T00:49:57;15.70;99.90
11474;DHT22;5793;52.238;13.438;2023-09-12T00:52:26;15.60;99.90
11474;DHT22;5793;52.238;13.438;2023-09-12T00:54:57;15.50;99.90
11474;DHT22;5793;52.238;13.438;2023-09-12T00:57:25;15.30;99.90
11474;DHT22;5793;52.238;13.438;2023-09-12T00:59:53;15.10;99.90
11474;DHT22;5793;52.238;13.438;2023-09-12T01:02:22;15.00;99.90
11474;DHT22;5793;52.238;13.438;2023-09-12T01:04:50;14.90;99.90
11474;DHT22;5793;52.238;13.438;2023-09-12T01:07:19;14.90;99.90
11474;DHT22;5793;52.238;13.438;2023-09-12T01:09:47;14.80;99.90
11474;DHT22;5793;52.238;13.438;2023-09-12T01:12:16;14.80;99.90
11474;DHT22;5793;52.238;13.438;2023-09-12T01:14:44;14.70;99.90
11474;DHT22;5793;52.238;13.438;2023-09-12T01:17:12;14.60;99.90
11474;DHT22;5793;52.238;13.438;2023-09-12T01:19:40;14.50;99.90
11474;DHT22;5793;52.238;13.438;2023-09-12T01:22:30;14.40;99.90
11474;DHT22;5793;52.238;13.438;2023-09-12T01:25:27;14.40;99.90
11474;DHT22;5793;52.238;13.438;2023-09-12T01:28:05;14.30;99.90
11474;DHT22;5793;52.238;13.438;2023-09-12T01:30:34;14.20;99.90
11474;DHT22;5793;52.238;13.438;2023-09-12T01:33:03;14.20;99.90
11474;DHT22;5793;52.238;13.438;2023-09-12T01:35:31;14.20;99.90
11474;DHT22;5793;52.238;13.438;2023-09-12T01:37:59;14.30;99.90
11474;DHT22;5793;52.238;13.438;2023-09-12T01:40:32;14.40;99.90
11474;DHT22;5793;52.238;13.438;2023-09-12T01:43:05;14.40;99.90
11474;DHT22;5793;52.238;13.438;2023-09-12T01:45:35;14.40;99.90
11474;DHT22;5793;52.238;13.438;2023-09-12T01:48:05;14.40;99.90
11474;DHT22;5793;52.238;13.438;2023-09-12T01:50:35;14.40;99.90
11474;DHT22;5793;52.238;13.438;2023-09-12T01:53:03;14.30;99.90
11474;DHT22;5793;52.238;13.438;2023-09-12T01:55:32;14.30;99.90
11474;DHT22;5793;52.238;13.438;2023-09-12T01:58:01;14.30;99.90
11474;DHT22;5793;52.238;13.438;2023-09-12T02:00:31;14.30;99.90
11474;DHT22;5793;52.238;13.438;2023-09-12T02:03:03;14.10;99.90
11474;DHT22;5793;52.238;13.438;2023-09-12T02:05:32;14.30;99.90
11474;DHT22;5793;52.238;13.438;2023-09-12T02:08:00;14.40;99.90
11474;DHT22;5793;52.238;13.438;2023-09-12T02:10:28;14.50;99.90
11474;DHT22;5793;52.238;13.438;2023-09-12T02:12:56;14.30;99.90
11474;DHT22;5793;52.238;13.438;2023-09-12T02:15:23;14.30;99.90
11474;DHT22;5793;52.238;13.438;2023-09-12T02:17:53;14.40;99.90
11474;DHT22;5793;52.238;13.438;2023-09-12T02:20:21;14.30;99.90
11474;DHT22;5793;52.238;13.438;2023-09-12T02:22:48;14.40;99.90
11474;DHT22;5793;52.238;13.438;2023-09-12T02:25:16;14.30;99.90
11474;DHT22;5793;52.238;13.438;2023-09-12T02:27:44;14.20;99.90
11474;DHT22;5793;52.238;13.438;2023-09-12T02:30:12;14.30;99.90
11474;DHT22;5793;52.238;13.438;2023-09-12T02:32:41;14.40;99.90
11474;DHT22;5793;52.238;13.438;2023-09-12T02:35:11;14.30;99.90
11474;DHT22;5793;52.238;13.438;2023-09-12T02:37:38;14.30;99.90
11474;DHT22;5793;52.238;13.438;2023-09-12T02:40:07;14.10;99.90
11474;DHT22;5793;52.238;13.438;2023-09-12T02:42:37;14.10;99.90
11474;DHT22;5793;52.238;13.438;2023-09-12T02:45:06;14.10;99.90
11474;DHT22;5793;52.238;13.438;2023-09-12T02:47:34;14.10;99.90
11474;DHT22;5793;52.238;13.438;2023-09-12T02:50:02;14.10;99.90
11474;DHT22;5793;52.238;13.438;2023-09-12T02:52:32;14.00;99.90
11474;DHT22;5793;52.238;13.438;2023-09-12T02:55:00;13.90;99.90
11474;DHT22;5793;52.238;13.438;2023-09-12T02:57:29;13.90;99.90
11474;DHT22;5793;52.238;13.438;2023-09-12T02:59:57;13.80;99.90
11474;DHT22;5793;52.238;13.438;2023-09-12T03:02:25;13.80;99.90
11474;DHT22;5793;52.238;13.438;2023-09-12T03:04:56;13.70;99.90
11474;DHT22;5793;52.238;13.438;2023-09-12T03:07:23;13.70;99.90
11474;DHT22;5793;52.238;13.438;2023-09-12T03:09:53;13.80;99.90
11474;DHT22;5793;52.238;13.438;2023-09-12T03:12:20;13.90;99.90
11474;DHT22;5793;52.238;13.438;2023-09-12T03:14:48;14.00;99.90
11474;DHT22;5793;52.238;13.438;2023-09-12T03:17:16;13.90;99.90
11474;DHT22;5793;52.238;13.438;2023-09-12T03:19:44;13.90;99.90
11474;DHT22;5793;52.238;13.438;2023-09-12T03:22:12;13.90;99.90
11474;DHT22;5793;52.238;13.438;2023-09-12T03:24:40;14.00;99.90
11474;DHT22;5793;52.238;13.438;2023-09-12T03:27:09;14.00;99.90
11474;DHT22;5793;52.238;13.438;2023-09-12T03:29:37;14.10;99.90
11474;DHT22;5793;52.238;13.438;2023-09-12T03:32:05;14.10;99.90
11474;DHT22;5793;52.238;13.438;2023-09-12T03:34:33;14.10;99.90
11474;DHT22;5793;52.238;13.438;2023-09-12T03:37:01;14.00;99.90
11474;DHT22;5793;52.238;13.438;2023-09-12T03:39:29;13.90;99.90
11474;DHT22;5793;52.238;13.438;2023-09-12T03:41:57;14.00;99.90
11474;DHT22;5793;52.238;13.438;2023-09-12T03:44:26;14.00;99.90
11474;DHT22;5793;52.238;13.438;2023-09-12T03:46:54;14.00;99.90
11474;DHT22;5793;52.238;13.438;2023-09-12T03:49:22;14.10;99.90
11474;DHT22;5793;52.238;13.438;2023-09-12T03:51:50;14.10;99.90
11474;DHT22;5793;52.238;13.438;2023-09-12T03:54:17;14.10;99.90
11474;DHT22;5793;52.238;13.438;2023-09-12T03:56:45;14.10;99.90
11474;DHT22;5793;52.238;13.438;2023-09-12T03:59:13;14.00;99.90
11474;DHT22;5793;52.238;13.438;2023-09-12T04:01:42;14.10;99.90
11474;DHT22;5793;52.238;13.438;2023-09-12T04:04:10;14.10;99.90
11474;DHT22;5793;52.238;13.438;2023-09-12T04:06:38;14.10;99.90
11474;DHT22;5793;52.238;13.438;2023-09-12T04:09:06;14.20;99.90
11474;DHT22;5793;52.238;13.438;2023-09-12T04:11:34;14.20;99.90
11474;DHT22;5793;52.238;13.438;2023-09-12T04:14:13;14.20;99.90
11474;DHT22;5793;52.238;13.438;2023-09-12T04:16:42;14.20;99.90
11474;DHT22;5793;52.238;13.438;2023-09-12T04:19:10;14.00;99.90
11474;DHT22;5793;52.238;13.438;2023-09-12T04:21:38;13.90;99.90
11474;DHT22;5793;52.238;13.438;2023-09-12T04:24:07;13.90;99.90
11474;DHT22;5793;52.238;13.438;2023-09-12T04:26:35;13.90;99.90
11474;DHT22;5793;52.238;13.438;2023-09-12T04:29:02;14.00;99.90
11474;DHT22;5793;52.238;13.438;2023-09-12T04:31:30;13.90;99.90
11474;DHT22;5793;52.238;13.438;2023-09-12T04:33:59;13.80;99.90
11474;DHT22;5793;52.238;13.438;2023-09-12T04:36:27;13.70;99.90
11474;DHT22;5793;52.238;13.438;2023-09-12T04:38:55;13.80;99.90
11474;DHT22;5793;52.238;13.438;2023-09-12T04:41:23;13.80;99.90
11474;DHT22;5793;52.238;13.438;2023-09-12T04:43:50;13.80;99.90
11474;DHT22;5793;52.238;13.438;2023-09-12T04:46:18;13.80;99.90
11474;DHT22;5793;52.238;13.438;2023-09-12T04:48:46;13.70;99.90
11474;DHT22;5793;52.238;13.438;2023-09-12T04:51:15;13.60;99.90
11474;DHT22;5793;52.238;13.438;2023-09-12T04:53:43;13.70;99.90
11474;DHT22;5793;52.238;13.438;2023-09-12T04:56:11;13.80;99.90
11474;DHT22;5793;52.238;13.438;2023-09-12T04:58:39;13.70;99.90
11474;DHT22;5793;52.238;13.438;2023-09-12T05:01:07;13.50;99.90
11474;DHT22;5793;52.238;13.438;2023-09-12T05:03:36;13.50;99.90
11474;DHT22;5793;52.238;13.438;2023-09-12T05:06:04;13.50;99.90
11474;DHT22;5793;52.238;13.438;2023-09-12T05:08:33;13.70;99.90
11474;DHT22;5793;52.238;13.438;2023-09-12T05:11:01;13.70;99.90
11474;DHT22;5793;52.238;13.438;2023-09-12T05:13:29;13.80;99.90
11474;DHT22;5793;52.238;13.438;2023-09-12T05:15:57;13.80;99.90
11474;DHT22;5793;52.238;13.438;2023-09-12T05:18:25;13.70;99.90
11474;DHT22;5793;52.238;13.438;2023-09-12T05:20:53;13.70;99.90
11474;DHT22;5793;52.238;13.438;2023-09-12T05:23:21;13.70;99.90
11474;DHT22;5793;52.238;13.438;2023-09-12T05:25:51;13.80;99.90
11474;DHT22;5793;52.238;13.438;2023-09-12T05:28:18;13.90;99.90
11474;DHT22;5793;52.238;13.438;2023-09-12T05:30:46;14.10;99.90
11474;DHT22;5793;52.238;13.438;2023-09-12T05:33:14;14.10;99.90
11474;DHT22;5793;52.238;13.438;2023-09-12T05:35:42;14.10;99.90
11474;DHT22;5793;52.238;13.438;2023-09-12T05:38:10;14.10;99.90
11474;DHT22;5793;52.238;13.438;2023-09-12T05:40:39;14.10;99.90
11474;DHT22;5793;52.238;13.438;2023-09-12T05:43:08;14.30;99.90
11474;DHT22;5793;52.238;13.438;2023-09-12T05:45:36;14.40;99.90
11474;DHT22;5793;52.238;13.438;2023-09-12T05:48:04;14.60;99.90
11474;DHT22;5793;52.238;13.438;2023-09-12T05:50:32;14.70;99.90
11474;DHT22;5793;52.238;13.438;2023-09-12T05:53:00;14.80;99.90
11474;DHT22;5793;52.238;13.438;2023-09-12T05:55:28;14.80;99.90
11474;DHT22;5793;52.238;13.438;2023-09-12T05:57:56;14.90;99.90
11474;DHT22;5793;52.238;13.438;2023-09-12T06:00:25;14.90;99.90
11474;DHT22;5793;52.238;13.438;2023-09-12T06:02:52;15.10;99.90
11474;DHT22;5793;52.238;13.438;2023-09-12T06:05:20;15.10;99.90
11474;DHT22;5793;52.238;13.438;2023-09-12T06:07:48;15.30;99.90
11474;DHT22;5793;52.238;13.438;2023-09-12T06:10:16;15.40;99.90
11474;DHT22;5793;52.238;13.438;2023-09-12T06:12:44;15.60;99.90
11474;DHT22;5793;52.238;13.438;2023-09-12T06:15:12;15.70;99.90
11474;DHT22;5793;52.238;13.438;2023-09-12T06:17:41;15.80;99.90
11474;DHT22;5793;52.238;13.438;2023-09-12T06:20:09;15.90;99.90
11474;DHT22;5793;52.238;13.438;2023-09-12T06:22:37;16.10;99.90
11474;DHT22;5793;52.238;13.438;2023-09-12T06:25:06;16.10;99.90
11474;DHT22;5793;52.238;13.438;2023-09-12T06:27:34;16.20;99.90
11474;DHT22;5793;52.238;13.438;2023-09-12T06:30:02;16.30;99.90
11474;DHT22;5793;52.238;13.438;2023-09-12T06:32:30;16.40;99.90
11474;DHT22;5793;52.238;13.438;2023-09-12T06:34:59;16.50;99.90
11474;DHT22;5793;52.238;13.438;2023-09-12T06:37:27;16.70;99.90
11474;DHT22;5793;52.238;13.438;2023-09-12T06:39:55;16.80;99.90
11474;DHT22;5793;52.238;13.438;2023-09-12T06:42:23;16.90;99.90
11474;DHT22;5793;52.238;13.438;2023-09-12T06:44:51;17.10;99.90
11474;DHT22;5793;52.238;13.438;2023-09-12T06:47:18;17.30;99.90
11474;DHT22;5793;52.238;13.438;2023-09-12T06:49:46;17.40;99.90
11474;DHT22;5793;52.238;13.438;2023-09-12T06:52:23;17.50;99.90
11474;DHT22;5793;52.238;13.438;2023-09-12T06:54:51;17.70;99.90
11474;DHT22;5793;52.238;13.438;2023-09-12T06:57:18;17.80;99.90
11474;DHT22;5793;52.238;13.438;2023-09-12T06:59:46;18.00;99.90
11474;DHT22;5793;52.238;13.438;2023-09-12T07:02:15;18.10;99.90
11474;DHT22;5793;52.238;13.438;2023-09-12T07:04:45;18.30;99.90
11474;DHT22;5793;52.238;13.438;2023-09-12T07:07:13;18.50;99.90
11474;DHT22;5793;52.238;13.438;2023-09-12T07:09:42;18.60;99.90
11474;DHT22;5793;52.238;13.438;2023-09-12T07:12:10;18.90;99.90
11474;DHT22;5793;52.238;13.438;2023-09-12T07:14:38;19.10;99.90
11474;DHT22;5793;52.238;13.438;2023-09-12T07:17:06;19.30;99.90
11474;DHT22;5793;52.238;13.438;2023-09-12T07:19:34;19.50;99.90
11474;DHT22;5793;52.238;13.438;2023-09-12T07:22:01;19.80;99.90
11474;DHT22;5793;52.238;13.438;2023-09-12T07:24:29;20.10;99.90
11474;DHT22;5793;52.238;13.438;2023-09-12T07:26:59;20.30;99.90
11474;DHT22;5793;52.238;13.438;2023-09-12T07:29:27;20.60;99.90
11474;DHT22;5793;52.238;13.438;2023-09-12T07:31:54;20.80;99.90
11474;DHT22;5793;52.238;13.438;2023-09-12T07:34:26;21.00;99.90
11474;DHT22;5793;52.238;13.438;2023-09-12T07:36:54;21.20;99.90
11474;DHT22;5793;52.238;13.438;2023-09-12T07:39:22;21.30;99.90
11474;DHT22;5793;52.238;13.438;2023-09-12T07:41:50;21.50;99.90
11474;DHT22;5793;52.238;13.438;2023-09-12T07:44:19;21.70;99.90
11474;DHT22;5793;52.238;13.438;2023-09-12T07:46:47;21.90;99.90
11474;DHT22;5793;52.238;13.438;2023-09-12T07:49:15;22.10;99.90
11474;DHT22;5793;52.238;13.438;2023-09-12T07:51:43;22.40;99.90
11474;DHT22;5793;52.238;13.438;2023-09-12T07:54:10;22.50;99.90
11474;DHT22;5793;52.238;13.438;2023-09-12T07:56:38;22.60;99.90
11474;DHT22;5793;52.238;13.438;2023-09-12T07:59:06;22.90;99.90
11474;DHT22;5793;52.238;13.438;2023-09-12T08:01:35;23.00;99.90
11474;DHT22;5793;52.238;13.438;2023-09-12T08:04:04;23.20;99.90
11474;DHT22;5793;52.238;13.438;2023-09-12T08:06:32;23.50;99.90
11474;DHT22;5793;52.238;13.438;2023-09-12T08:09:17;23.80;99.90
11474;DHT22;5793;52.238;13.438;2023-09-12T08:11:45;24.00;99.90
11474;DHT22;5793;52.238;13.438;2023-09-12T08:14:13;24.20;99.90
11474;DHT22;5793;52.238;13.438;2023-09-12T08:16:42;24.50;99.90
11474;DHT22;5793;52.238;13.438;2023-09-12T08:19:09;24.70;99.90
11474;DHT22;5793;52.238;13.438;2023-09-12T08:21:42;25.10;99.90
11474;DHT22;5793;52.238;13.438;2023-09-12T08:24:12;25.60;99.90
11474;DHT22;5793;52.238;13.438;2023-09-12T08:26:40;26.00;99.90
11474;DHT22;5793;52.238;13.438;2023-09-12T08:29:07;26.30;99.90
11474;DHT22;5793;52.238;13.438;2023-09-12T08:31:35;26.90;99.90
11474;DHT22;5793;52.238;13.438;2023-09-12T08:34:04;27.70;99.90
11474;DHT22;5793;52.238;13.438;2023-09-12T08:36:32;28.80;99.90
11474;DHT22;5793;52.238;13.438;2023-09-12T08:39:02;30.20;99.90
11474;DHT22;5793;52.238;13.438;2023-09-12T08:41:31;32.00;99.90
11474;DHT22;5793;52.238;13.438;2023-09-12T08:43:59;34.00;99.90
11474;DHT22;5793;52.238;13.438;2023-09-12T08:46:28;35.30;96.80
11474;DHT22;5793;52.238;13.438;2023-09-12T08:48:56;37.30;91.10
11474;DHT22;5793;52.238;13.438;2023-09-12T08:51:26;39.70;74.10
11474;DHT22;5793;52.238;13.438;2023-09-12T08:53:54;42.00;66.40
11474;DHT22;5793;52.238;13.438;2023-09-12T08:56:21;43.60;61.10
11474;DHT22;5793;52.238;13.438;2023-09-12T08:58:51;44.70;58.40
11474;DHT22;5793;52.238;13.438;2023-09-12T09:01:20;45.70;53.20
11474;DHT22;5793;52.238;13.438;2023-09-12T09:03:48;46.10;52.50
11474;DHT22;5793;52.238;13.438;2023-09-12T09:06:16;46.90;49.70
11474;DHT22;5793;52.238;13.438;2023-09-12T09:08:46;47.80;49.10
11474;DHT22;5793;52.238;13.438;2023-09-12T09:11:14;48.50;47.90
11474;DHT22;5793;52.238;13.438;2023-09-12T09:13:41;48.10;46.90
11474;DHT22;5793;52.238;13.438;2023-09-12T09:16:11;48.30;45.90
11474;DHT22;5793;52.238;13.438;2023-09-12T09:18:52;48.60;45.10
11474;DHT22;5793;52.238;13.438;2023-09-12T09:21:23;48.80;44.30
11474;DHT22;5793;52.238;13.438;2023-09-12T09:23:54;48.40;43.80
11474;DHT22;5793;52.238;13.438;2023-09-12T09:26:22;48.20;43.40
11474;DHT22;5793;52.238;13.438;2023-09-12T09:29:05;47.90;43.90
11474;DHT22;5793;52.238;13.438;2023-09-12T09:31:33;48.00;44.20
11474;DHT22;5793;52.238;13.438;2023-09-12T09:34:01;47.60;44.20
11474;DHT22;5793;52.238;13.438;2023-09-12T09:36:31;46.90;44.10
11474;DHT22;5793;52.238;13.438;2023-09-12T09:39:02;46.30;44.90
11474;DHT22;5793;52.238;13.438;2023-09-12T09:41:31;45.50;45.20
11474;DHT22;5793;52.238;13.438;2023-09-12T09:43:59;45.00;45.30
11474;DHT22;5793;52.238;13.438;2023-09-12T09:46:27;44.70;46.10
11474;DHT22;5793;52.238;13.438;2023-09-12T09:48:55;44.30;46.30
11474;DHT22;5793;52.238;13.438;2023-09-12T09:51:25;44.50;46.00
11474;DHT22;5793;52.238;13.438;2023-09-12T09:53:53;44.80;46.90
11474;DHT22;5793;52.238;13.438;2023-09-12T09:56:26;44.60;46.10
11474;DHT22;5793;52.238;13.438;2023-09-12T09:58:55;44.30;46.90
11474;DHT22;5793;52.238;13.438;2023-09-12T10:01:26;43.30;47.60
11474;DHT22;5793;52.238;13.438;2023-09-12T10:03:58;42.60;49.40
11474;DHT22;5793;52.238;13.438;2023-09-12T10:06:27;42.40;48.50
11474;DHT22;5793;52.238;13.438;2023-09-12T10:08:56;42.40;49.30
11474;DHT22;5793;52.238;13.438;2023-09-12T10:11:29;42.30;49.90
11474;DHT22;5793;52.238;13.438;2023-09-12T10:13:59;41.90;49.60
11474;DHT22;5793;52.238;13.438;2023-09-12T10:16:31;41.70;48.80
11474;DHT22;5793;52.238;13.438;2023-09-12T10:19:05;41.60;49.20
11474;DHT22;5793;52.238;13.438;2023-09-12T10:21:42;41.30;49.80
11474;DHT22;5793;52.238;13.438;2023-09-12T10:24:14;40.70;51.60
11474;DHT22;5793;52.238;13.438;2023-09-12T10:26:44;40.10;53.00
11474;DHT22;5793;52.238;13.438;2023-09-12T10:29:13;38.90;55.70
11474;DHT22;5793;52.238;13.438;2023-09-12T10:31:42;37.90;57.80
11474;DHT22;5793;52.238;13.438;2023-09-12T10:34:11;37.10;58.90
11474;DHT22;5793;52.238;13.438;2023-09-12T10:36:43;36.20;61.90
11474;DHT22;5793;52.238;13.438;2023-09-12T10:39:14;35.60;64.60
11474;DHT22;5793;52.238;13.438;2023-09-12T10:41:43;35.10;64.40
11474;DHT22;5793;52.238;13.438;2023-09-12T10:44:15;34.70;64.10
11474;DHT22;5793;52.238;13.438;2023-09-12T10:46:45;34.40;64.80
11474;DHT22;5793;52.238;13.438;2023-09-12T10:49:14;34.50;65.60
11474;DHT22;5793;52.238;13.438;2023-09-12T10:51:44;34.40;64.90
11474;DHT22;5793;52.238;13.438;2023-09-12T10:54:14;34.30;64.80
11474;DHT22;5793;52.238;13.438;2023-09-12T10:56:43;34.50;63.80
11474;DHT22;5793;52.238;13.438;2023-09-12T10:59:17;34.90;62.70
11474;DHT22;5793;52.238;13.438;2023-09-12T11:01:45;35.50;62.80
11474;DHT22;5793;52.238;13.438;2023-09-12T11:04:33;36.30;59.40
11474;DHT22;5793;52.238;13.438;2023-09-12T11:07:01;37.30;59.20
11474;DHT22;5793;52.238;13.438;2023-09-12T11:10:16;37.70;57.90
11474;DHT22;5793;52.238;13.438;2023-09-12T11:12:46;38.50;56.00
11474;DHT22;5793;52.238;13.438;2023-09-12T11:15:15;38.90;57.30
11474;DHT22;5793;52.238;13.438;2023-09-12T11:17:44;38.80;57.10
11474;DHT22;5793;52.238;13.438;2023-09-12T11:20:13;38.90;55.80
11474;DHT22;5793;52.238;13.438;2023-09-12T11:22:43;38.60;56.40
11474;DHT22;5793;52.238;13.438;2023-09-12T11:25:19;38.10;58.20
11474;DHT22;5793;52.238;13.438;2023-09-12T11:28:05;37.30;60.60
11474;DHT22;5793;52.238;13.438;2023-09-12T11:30:33;35.90;64.20
11474;DHT22;5793;52.238;13.438;2023-09-12T11:33:04;35.10;64.40
11474;DHT22;5793;52.238;13.438;2023-09-12T11:35:36;34.50;66.40
11474;DHT22;5793;52.238;13.438;2023-09-12T11:38:09;34.10;65.70
11474;DHT22;5793;52.238;13.438;2023-09-12T11:40:45;33.60;67.30
11474;DHT22;5793;52.238;13.438;2023-09-12T11:43:24;33.00;68.40
11474;DHT22;5793;52.238;13.438;2023-09-12T11:45:53;32.60;67.80
11474;DHT22;5793;52.238;13.438;2023-09-12T11:48:21;32.30;70.50
11474;DHT22;5793;52.238;13.438;2023-09-12T11:50:51;32.40;69.40
11474;DHT22;5793;52.238;13.438;2023-09-12T11:53:21;32.40;70.90
11474;DHT22;5793;52.238;13.438;2023-09-12T11:55:54;32.40;70.60
11474;DHT22;5793;52.238;13.438;2023-09-12T11:58:22;32.40;69.70
11474;DHT22;5793;52.238;13.438;2023-09-12T12:00:53;32.60;71.40
11474;DHT22;5793;52.238;13.438;2023-09-12T12:03:22;32.70;70.90
11474;DHT22;5793;52.238;13.438;2023-09-12T12:05:51;32.60;69.10
11474;DHT22;5793;52.238;13.438;2023-09-12T12:08:20;32.50;69.60
11474;DHT22;5793;52.238;13.438;2023-09-12T12:10:59;32.50;68.50
11474;DHT22;5793;52.238;13.438;2023-09-12T12:13:28;32.50;69.20
11474;DHT22;5793;52.238;13.438;2023-09-12T12:16:15;32.50;69.00
11474;DHT22;5793;52.238;13.438;2023-09-12T12:18:43;32.40;72.40
11474;DHT22;5793;52.238;13.438;2023-09-12T12:21:11;32.60;71.20
11474;DHT22;5793;52.238;13.438;2023-09-12T12:23:39;32.70;71.80
11474;DHT22;5793;52.238;13.438;2023-09-12T12:26:09;32.60;72.30
11474;DHT22;5793;52.238;13.438;2023-09-12T12:28:37;32.40;71.60
11474;DHT22;5793;52.238;13.438;2023-09-12T12:31:05;32.20;73.80
11474;DHT22;5793;52.238;13.438;2023-09-12T12:33:33;32.00;73.10
11474;DHT22;5793;52.238;13.438;2023-09-12T12:36:21;31.50;72.40
11474;DHT22;5793;52.238;13.438;2023-09-12T12:38:50;31.20;75.20
11474;DHT22;5793;52.238;13.438;2023-09-12T12:41:39;30.90;72.90
11474;DHT22;5793;52.238;13.438;2023-09-12T12:44:16;31.00;74.30
11474;DHT22;5793;52.238;13.438;2023-09-12T12:46:48;31.00;74.30
11474;DHT22;5793;52.238;13.438;2023-09-12T12:49:16;31.10;74.40
11474;DHT22;5793;52.238;13.438;2023-09-12T12:51:44;31.30;73.80
11474;DHT22;5793;52.238;13.438;2023-09-12T12:54:13;31.10;76.10
11474;DHT22;5793;52.238;13.438;2023-09-12T12:56:43;31.00;74.80
11474;DHT22;5793;52.238;13.438;2023-09-12T12:59:11;30.90;74.00
11474;DHT22;5793;52.238;13.438;2023-09-12T13:01:39;30.80;74.70
11474;DHT22;5793;52.238;13.438;2023-09-12T13:04:08;30.90;75.00
11474;DHT22;5793;52.238;13.438;2023-09-12T13:06:36;31.00;75.40
11474;DHT22;5793;52.238;13.438;2023-09-12T13:09:05;31.00;74.60
11474;DHT22;5793;52.238;13.438;2023-09-12T13:11:34;30.90;76.80
11474;DHT22;5793;52.238;13.438;2023-09-12T13:14:04;30.70;76.00
11474;DHT22;5793;52.238;13.438;2023-09-12T13:16:36;30.60;76.50
11474;DHT22;5793;52.238;13.438;2023-09-12T13:19:06;30.40;78.70
11474;DHT22;5793;52.238;13.438;2023-09-12T13:21:34;30.30;79.10
11474;DHT22;5793;52.238;13.438;2023-09-12T13:24:03;30.10;77.80
11474;DHT22;5793;52.238;13.438;2023-09-12T13:26:31;29.90;78.20
11474;DHT22;5793;52.238;13.438;2023-09-12T13:28:59;29.90;79.20
11474;DHT22;5793;52.238;13.438;2023-09-12T13:31:28;30.00;80.90
11474;DHT22;5793;52.238;13.438;2023-09-12T13:33:56;30.00;80.20
11474;DHT22;5793;52.238;13.438;2023-09-12T13:36:24;30.00;77.50
11474;DHT22;5793;52.238;13.438;2023-09-12T13:38:52;30.10;77.80
11474;DHT22;5793;52.238;13.438;2023-09-12T13:41:20;30.20;79.30
11474;DHT22;5793;52.238;13.438;2023-09-12T13:43:49;30.20;78.10
11474;DHT22;5793;52.238;13.438;2023-09-12T13:46:16;30.10;79.70
11474;DHT22;5793;52.238;13.438;2023-09-12T13:48:46;30.10;82.40
11474;DHT22;5793;52.238;13.438;2023-09-12T13:51:15;30.10;80.50
11474;DHT22;5793;52.238;13.438;2023-09-12T13:53:43;30.20;79.70
11474;DHT22;5793;52.238;13.438;2023-09-12T13:56:11;30.30;79.60
11474;DHT22;5793;52.238;13.438;2023-09-12T13:58:48;30.20;79.60
11474;DHT22;5793;52.238;13.438;2023-09-12T14:01:18;30.20;79.60
11474;DHT22;5793;52.238;13.438;2023-09-12T14:04:01;30.10;80.50
11474;DHT22;5793;52.238;13.438;2023-09-12T14:06:32;30.20;79.60
11474;DHT22;5793;52.238;13.438;2023-09-12T14:09:00;30.20;82.80
11474;DHT22;5793;52.238;13.438;2023-09-12T14:11:28;30.10;84.00
11474;DHT22;5793;52.238;13.438;2023-09-12T14:14:02;29.90;85.50
11474;DHT22;5793;52.238;13.438;2023-09-12T14:16:41;29.80;82.90
11474;DHT22;5793;52.238;13.438;2023-09-12T14:19:15;29.70;84.50
11474;DHT22;5793;52.238;13.438;2023-09-12T14:21:43;29.70;82.30
11474;DHT22;5793;52.238;13.438;2023-09-12T14:24:14;29.60;83.80
11474;DHT22;5793;52.238;13.438;2023-09-12T14:26:42;29.50;85.10
11474;DHT22;5793;52.238;13.438;2023-09-12T14:29:11;29.30;87.50
11474;DHT22;5793;52.238;13.438;2023-09-12T14:31:40;29.20;86.90
11474;DHT22;5793;52.238;13.438;2023-09-12T14:34:18;29.20;86.90
11474;DHT22;5793;52.238;13.438;2023-09-12T14:36:46;29.10;86.80
11474;DHT22;5793;52.238;13.438;2023-09-12T14:39:14;29.10;89.20
11474;DHT22;5793;52.238;13.438;2023-09-12T14:41:42;29.20;90.40
11474;DHT22;5793;52.238;13.438;2023-09-12T14:44:10;29.10;90.60
11474;DHT22;5793;52.238;13.438;2023-09-12T14:46:38;29.10;88.10
11474;DHT22;5793;52.238;13.438;2023-09-12T14:49:06;29.10;90.80
11474;DHT22;5793;52.238;13.438;2023-09-12T14:51:36;29.10;91.60
11474;DHT22;5793;52.238;13.438;2023-09-12T14:54:04;29.10;91.90
11474;DHT22;5793;52.238;13.438;2023-09-12T14:56:33;29.10;88.60
11474;DHT22;5793;52.238;13.438;2023-09-12T14:59:01;29.20;91.20
11474;DHT22;5793;52.238;13.438;2023-09-12T15:01:30;29.10;91.60
11474;DHT22;5793;52.238;13.438;2023-09-12T15:03:58;28.90;91.30
11474;DHT22;5793;52.238;13.438;2023-09-12T15:06:26;28.90;90.80
11474;DHT22;5793;52.238;13.438;2023-09-12T15:08:56;28.90;86.00
11474;DHT22;5793;52.238;13.438;2023-09-12T15:11:24;28.90;86.90
11474;DHT22;5793;52.238;13.438;2023-09-12T15:13:52;28.90;90.30
11474;DHT22;5793;52.238;13.438;2023-09-12T15:16:19;28.80;91.60
11474;DHT22;5793;52.238;13.438;2023-09-12T15:18:48;28.80;92.40
11474;DHT22;5793;52.238;13.438;2023-09-12T15:21:15;28.80;93.80
11474;DHT22;5793;52.238;13.438;2023-09-12T15:23:43;28.70;96.20
11474;DHT22;5793;52.238;13.438;2023-09-12T15:26:13;28.50;95.00
11474;DHT22;5793;52.238;13.438;2023-09-12T15:28:41;28.50;95.50
11474;DHT22;5793;52.238;13.438;2023-09-12T15:31:09;28.30;97.10
11474;DHT22;5793;52.238;13.438;2023-09-12T15:33:38;28.10;96.00
11474;DHT22;5793;52.238;13.438;2023-09-12T15:36:06;28.00;97.60
11474;DHT22;5793;52.238;13.438;2023-09-12T15:38:33;27.90;97.00
11474;DHT22;5793;52.238;13.438;2023-09-12T15:41:01;27.70;98.90
11474;DHT22;5793;52.238;13.438;2023-09-12T15:43:31;27.50;99.90